Impacts METAR Board
IDs:

KSFO - San Francisco Intl, CA, US

Updated at: 2000 UTC 08 Feb 2023
Potential Impact None Slight Moderate High
Time 08/08Z 08/09Z 08/10Z 08/11Z 08/12Z 08/13Z 08/14Z 08/15Z 08/16Z 08/17Z 08/18Z 08/19Z 08/20Z
Temp48 48 47 45 45 44 46 45 46 50 53 53 54
Dewpt42 43 42 41 42 41 44 43 43 47 46 47 48
Altim30.36 30.34 30.34 30.34 30.33 30.34 30.35 30.36 30.37 30.39 30.40 30.40 30.38
VIS10 10 10 10 10 10 10 10 10 10 10 10 10
CIG-- -- -- -- -- -- -- -- -- -- -- -- --
CoverCLRCLRCLRCLRCLRCLRCLRFEWFEWFEWFEWFEWFEW
FltCatVFRVFRVFRVFRVFRVFRVFRVFRVFRVFRVFRVFRVFR
WX--------------------------
WDir022019030017025020016000303040
WSpd0 3 3 3 3 3 3 4 0 0 3 3 5
WGst-- -- -- -- -- -- -- -- -- -- -- -- --
Raw hourly METARs
KSFO 080756Z 00000KT 10SM CLR 09/06 A3036 RMK AO2 SLP279 T00890056 401610056
KSFO 080856Z 22003KT 10SM CLR 09/06 A3034 RMK AO2 SLP273 T00890061 58004
KSFO 080956Z 19003KT 10SM CLR 08/06 A3034 RMK AO2 SLP272 T00830056
KSFO 081056Z 30003KT 10SM CLR 07/05 A3034 RMK AO2 SLP273 T00720050
KSFO 081156Z 17003KT 10SM CLR 07/06 A3033 RMK AO2 SLP269 T00720056 10106 20067 58005
KSFO 081256Z 25003KT 10SM CLR 07/05 A3034 RMK AO2 SLP274 T00670050
KSFO 081356Z 20003KT 10SM CLR 08/07 A3035 RMK AO2 SLP276 T00780067
KSFO 081456Z 16004KT 10SM FEW180 07/06 A3036 RMK AO2 SLP279 T00720061 51010
KSFO 081556Z 00000KT 10SM FEW180 08/06 A3037 RMK AO2 SLP285 T00780061
KSFO 081656Z 00000KT 10SM FEW180 10/08 A3039 RMK AO2 SLP292 T01000083
KSFO 081756Z 03003KT 10SM FEW200 12/08 A3040 RMK AO2 SLP292 T01170078 10117 20061 51013
KSFO 081856Z 03003KT 10SM FEW220 12/08 A3040 RMK AO2 SLP292 T01170083
KSFO 081956Z 04005KT 10SM FEW250 12/09 A3038 RMK AO2 SLP286 T01220089



Page loaded:  20:19 UTC  |   12:19 PM Pacific  |   01:19 PM Mountain  |   02:19 PM Central  |   03:19 PM Eastern

 

ADVISORIES

FORECASTS

FORECASTS

OBSERVATIONS

USER TOOLS

ABOUT US